Andover, Connecticut
Current Conditions -  °F | °C
As of 2:52 PM on Sunday 25 Jan 2015 (Local Time) from KIJD Reporting Station
Clear Clear  
Wind Chill: 23°   Ceiling: Unl
Heat Index: 33°   Visibility: 10mi
Dew Point:   Wind: 15mph
Humidity: 37%   Direction: 280°W
Pressure: 29.77"   Gusts: 26mph
Location:  41.74°N, 72.37°W
Report Text: KIJD 251952Z AUTO 28013G23KT 10SM CLR 01/M13 A2977 RMK AO2 SLP081 T00061128 $
Loading
Personal Weather Stations






























Interactive Weather Map New forecast layout! Learn more

10-Day Weather Forecast

Advertisements
Track Severe Weather on mobile